Cedartown, Georgia
Current Conditions -  °F | °C
As of 9:35 AM on Thursday 30 Oct 2014 (Local Time) from KPUJ Reporting Station
Clear Clear  
Wind Chill: 50°   Ceiling: Unl
Heat Index: 50°   Visibility: 10mi
Dew Point: 46°   Wind: 9mph
Humidity: 87%   Direction: 330°NNW
Pressure: 30.1"   Gusts: NA
Location:  34.01°N, 85.26°W
Report Text: KPUJ 301335Z AUTO 33008KT 10SM CLR 10/08 A3010 RMK AO2
Loading
Personal Weather Stations






























Interactive Weather Map
Tropical Storm Tracking
New forecast layout! Learn more

10-Day Weather Forecast

Advertisements
Track Severe Weather on mobile